Morant Bay, Jamaica
Current Conditions -  °F | °C
As of 11:00 PM on Wednesday 28 Jan 2015 (Local Time) from MKJP Reporting Station
Broken Clouds Broken Clouds  
Wind Chill: 79°   Ceiling: 3600
Heat Index: 81°   Visibility: 6mi
Dew Point: 70°   Wind: 9mph
Humidity: 74%   Direction: 360°N
Pressure: 29.94"   Gusts: NA
Location:  17.87°N, 76.39°W
Report Text: MKJP 290400Z 36008KT 9999 FEW022 BKN036 26/21 Q1014
Loading
Personal Weather Stations






























Interactive Weather Map New forecast layout! Learn more

10-Day Weather Forecast

Advertisements
Track Severe Weather on mobile